Time;durP1;ratioP1;P1;durP2;ratioP2;P2;SDS_P1;SDS_P2;PMS_P1;PMS_P2;Temp;Humidity;BMP_temperature;BMP_pressure;BME280_temperature;BME280_humidity;BME280_pressure;Samples;Min_cycle;Max_cycle;Signal;HPM_P1;HPM_P2
2021/08/21 00:00:58;;;;;;;46.47;6.63;;;;;;;;;;5016154;28;20397;-44
2021/08/21 00:03:25;;;;;;;39.83;6.55;;;;;;;;;;5019935;28;20056;-45
2021/08/21 00:05:52;;;;;;;48.28;6.25;;;;;;;;;;5024185;28;20481;-44
2021/08/21 00:08:19;;;;;;;50.50;6.53;;;;;;;;;;5026469;28;20120;-47
2021/08/21 00:10:47;;;;;;;49.80;6.88;;;;;;;;;;5025881;28;20033;-44
2021/08/21 00:13:13;;;;;;;49.70;7.18;;;;;;;;;;5022860;28;20314;-47
2021/08/21 00:15:40;;;;;;;46.33;6.57;;;;;;;;;;5027551;28;20017;-46
2021/08/21 00:18:07;;;;;;;60.47;7.65;;;;;;;;;;5024808;28;20147;-46
2021/08/21 00:20:35;;;;;;;57.03;8.35;;;;;;;;;;5023044;28;20492;-45
2021/08/21 00:23:02;;;;;;;56.60;9.32;;;;;;;;;;5020364;28;20025;-45
2021/08/21 00:25:29;;;;;;;81.18;10.13;;;;;;;;;;5026014;28;20048;-43
2021/08/21 00:27:56;;;;;;;61.17;9.40;;;;;;;;;;5027576;28;20018;-44
2021/08/21 00:30:24;;;;;;;77.55;9.68;;;;;;;;;;5024788;28;20026;-45
2021/08/21 00:32:51;;;;;;;81.70;10.05;;;;;;;;;;5027549;28;20489;-46
2021/08/21 00:35:20;;;;;;;63.42;9.38;;;;;;;;;;5169145;23;20115;-52
2021/08/21 00:37:47;;;;;;;75.22;9.20;;;;;;;;;;5028371;28;20056;-53
2021/08/21 00:40:14;;;;;;;70.40;9.57;;;;;;;;;;5026444;28;20040;-47
2021/08/21 00:42:41;;;;;;;64.03;9.07;;;;;;;;;;5014244;28;20049;-49
2021/08/21 00:45:09;;;;;;;75.57;9.70;;;;;;;;;;5021694;28;20500;-43
2021/08/21 00:47:36;;;;;;;65.85;8.45;;;;;;;;;;5018730;28;20048;-48
2021/08/21 00:50:03;;;;;;;70.75;9.90;;;;;;;;;;5017332;28;20033;-45
2021/08/21 00:52:32;;;;;;;65.47;8.52;;;;;;;;;;5026170;28;20169;-45
2021/08/21 00:54:59;;;;;;;56.67;8.43;;;;;;;;;;5023860;28;20385;-46
2021/08/21 00:57:26;;;;;;;62.35;9.02;;;;;;;;;;5029379;28;20579;-44
2021/08/21 00:59:54;;;;;;;67.90;9.15;;;;;;;;;;5022559;28;20079;-45
2021/08/21 01:02:21;;;;;;;62.33;9.07;;;;;;;;;;5028880;28;20183;-45
2021/08/21 01:04:50;;;;;;;75.93;10.50;;;;;;;;;;5018522;28;20500;-45
2021/08/21 01:07:22;;;;;;;65.57;10.25;;;;;;;;;;5028445;28;20079;-48
2021/08/21 01:09:49;;;;;;;58.70;12.32;;;;;;;;;;5026143;28;20018;-45
2021/08/21 01:12:17;;;;;;;68.00;13.65;;;;;;;;;;5019608;28;20034;-47
2021/08/21 01:14:46;;;;;;;76.35;15.20;;;;;;;;;;5024981;28;20033;-43
2021/08/21 01:17:16;;;;;;;70.00;16.48;;;;;;;;;;5026458;28;20026;-45
2021/08/21 01:19:45;;;;;;;70.38;16.38;;;;;;;;;;5028781;28;20033;-43
2021/08/21 01:22:14;;;;;;;58.90;15.48;;;;;;;;;;5019881;28;20040;-44
2021/08/21 01:24:41;;;;;;;82.72;18.40;;;;;;;;;;5015303;28;20102;-46
2021/08/21 01:27:15;;;;;;;64.70;17.17;;;;;;;;;;5015405;28;20029;-47
2021/08/21 01:29:42;;;;;;;66.40;16.63;;;;;;;;;;5011465;28;20048;-45
2021/08/21 01:32:09;;;;;;;83.95;18.67;;;;;;;;;;5016867;28;20013;-50
2021/08/21 01:34:36;;;;;;;62.05;15.50;;;;;;;;;;5009838;28;20057;-48
2021/08/21 01:37:04;;;;;;;70.03;16.58;;;;;;;;;;5004538;28;20034;-45
2021/08/21 01:39:31;;;;;;;73.57;17.02;;;;;;;;;;5009299;28;20034;-43
2021/08/21 01:41:59;;;;;;;65.22;17.33;;;;;;;;;;5007405;28;20053;-43
2021/08/21 01:44:26;;;;;;;75.40;17.35;;;;;;;;;;5006523;28;20085;-45
2021/08/21 01:46:53;;;;;;;72.18;17.80;;;;;;;;;;5006935;28;20046;-44
2021/08/21 01:49:22;;;;;;;70.28;17.83;;;;;;;;;;5005635;28;20022;-42
2021/08/21 01:51:50;;;;;;;70.28;17.88;;;;;;;;;;5008954;28;20037;-40
2021/08/21 01:54:18;;;;;;;63.95;16.83;;;;;;;;;;5006313;28;20042;-42
2021/08/21 01:56:52;;;;;;;66.68;16.55;;;;;;;;;;5007355;28;20544;-42
2021/08/21 01:59:39;;;;;;;62.47;16.05;;;;;;;;;;5005916;28;20041;-46
2021/08/21 02:02:07;;;;;;;54.88;16.02;;;;;;;;;;5008091;28;20030;-44
2021/08/21 02:04:34;;;;;;;60.70;16.35;;;;;;;;;;5004337;28;20069;-43
2021/08/21 02:07:01;;;;;;;60.65;16.23;;;;;;;;;;5005050;28;20022;-46
2021/08/21 02:09:28;;;;;;;57.33;15.00;;;;;;;;;;5008448;28;20061;-43
2021/08/21 02:11:57;;;;;;;67.18;15.95;;;;;;;;;;5007947;28;20413;-42
2021/08/21 02:14:24;;;;;;;72.78;16.20;;;;;;;;;;5007478;28;20025;-43
2021/08/21 02:16:53;;;;;;;54.63;14.63;;;;;;;;;;5006765;28;20485;-43
2021/08/21 02:19:21;;;;;;;54.58;13.77;;;;;;;;;;5007649;28;20045;-43
2021/08/21 02:21:50;;;;;;;56.58;13.98;;;;;;;;;;5006254;28;20048;-41
2021/08/21 02:24:24;;;;;;;60.58;14.07;;;;;;;;;;5005012;28;20088;-45
2021/08/21 02:26:52;;;;;;;52.88;14.43;;;;;;;;;;5010179;28;20523;-43
2021/08/21 02:29:19;;;;;;;48.17;13.55;;;;;;;;;;5014149;28;20018;-43
2021/08/21 02:31:47;;;;;;;44.80;12.63;;;;;;;;;;5003259;28;20018;-43
2021/08/21 02:34:14;;;;;;;49.30;13.18;;;;;;;;;;4998715;28;20061;-42
2021/08/21 02:36:43;;;;;;;50.95;12.68;;;;;;;;;;5007980;28;20041;-41
2021/08/21 02:39:11;;;;;;;54.25;12.43;;;;;;;;;;5012821;28;20037;-42
2021/08/21 02:41:38;;;;;;;42.80;12.05;;;;;;;;;;5010692;28;20037;-42
2021/08/21 02:44:05;;;;;;;46.63;12.75;;;;;;;;;;5003279;28;20041;-46
2021/08/21 02:46:33;;;;;;;45.40;12.00;;;;;;;;;;5007750;28;20033;-44
2021/08/21 02:49:00;;;;;;;39.35;12.30;;;;;;;;;;5005446;28;20504;-42
2021/08/21 02:51:28;;;;;;;47.45;12.65;;;;;;;;;;5006506;28;20057;-40
2021/08/21 02:53:55;;;;;;;45.85;11.38;;;;;;;;;;5001389;28;20106;-44
2021/08/21 02:56:23;;;;;;;48.28;14.02;;;;;;;;;;5007301;28;20030;-42
2021/08/21 02:58:51;;;;;;;42.33;11.82;;;;;;;;;;5003631;28;20034;-41
2021/08/21 03:01:19;;;;;;;37.38;11.07;;;;;;;;;;5007060;28;20025;-42
2021/08/21 03:03:46;;;;;;;35.33;9.55;;;;;;;;;;5013499;28;20029;-46
2021/08/21 03:06:13;;;;;;;40.78;10.32;;;;;;;;;;5005150;28;20028;-42
2021/08/21 03:08:40;;;;;;;40.08;11.10;;;;;;;;;;5013773;28;20032;-44
2021/08/21 03:11:07;;;;;;;38.50;10.23;;;;;;;;;;5013431;28;20113;-44
2021/08/21 03:13:34;;;;;;;37.05;9.25;;;;;;;;;;5013747;28;20018;-45
2021/08/21 03:16:01;;;;;;;39.60;8.90;;;;;;;;;;5009020;28;20018;-46
2021/08/21 03:18:28;;;;;;;38.40;8.93;;;;;;;;;;5013848;28;20037;-44
2021/08/21 03:20:55;;;;;;;32.00;9.23;;;;;;;;;;5013955;28;20037;-48
2021/08/21 03:23:22;;;;;;;31.30;9.15;;;;;;;;;;5014085;28;20080;-44
2021/08/21 03:25:49;;;;;;;30.45;8.50;;;;;;;;;;5008959;28;20100;-44
2021/08/21 03:28:16;;;;;;;28.48;9.27;;;;;;;;;;5013919;28;20022;-45
2021/08/21 03:30:43;;;;;;;36.40;8.68;;;;;;;;;;5013861;28;20025;-45
2021/08/21 03:33:10;;;;;;;33.78;8.80;;;;;;;;;;5013488;28;20021;-43
2021/08/21 03:35:37;;;;;;;25.73;7.72;;;;;;;;;;5009412;28;20460;-43
2021/08/21 03:38:04;;;;;;;26.83;8.40;;;;;;;;;;5012263;28;20038;-43
2021/08/21 03:40:31;;;;;;;37.30;8.82;;;;;;;;;;5012329;28;20117;-45
2021/08/21 03:42:58;;;;;;;26.85;7.80;;;;;;;;;;5013487;28;20018;-46
2021/08/21 03:45:25;;;;;;;40.45;8.50;;;;;;;;;;5012469;28;20026;-46
2021/08/21 03:47:53;;;;;;;30.90;7.88;;;;;;;;;;5009948;28;20160;-44
2021/08/21 03:50:20;;;;;;;29.85;7.60;;;;;;;;;;5013687;28;20014;-43
2021/08/21 03:52:47;;;;;;;26.67;7.25;;;;;;;;;;5013466;28;20033;-46
2021/08/21 03:55:14;;;;;;;30.90;8.10;;;;;;;;;;5013359;28;20020;-42
2021/08/21 03:57:42;;;;;;;24.30;7.03;;;;;;;;;;5008263;28;20078;-44
2021/08/21 04:00:09;;;;;;;26.75;7.95;;;;;;;;;;5012319;28;20117;-44
2021/08/21 04:02:36;;;;;;;27.58;7.47;;;;;;;;;;5013076;28;20022;-45
2021/08/21 04:05:03;;;;;;;36.35;7.65;;;;;;;;;;5013082;28;20077;-44
2021/08/21 04:07:30;;;;;;;38.10;8.50;;;;;;;;;;5008573;28;20022;-46
2021/08/21 04:09:57;;;;;;;35.90;7.93;;;;;;;;;;5013156;28;20022;-44
2021/08/21 04:12:24;;;;;;;36.17;8.35;;;;;;;;;;5013195;28;20029;-45
2021/08/21 04:14:51;;;;;;;27.60;7.43;;;;;;;;;;5012644;28;20049;-43
2021/08/21 04:17:18;;;;;;;25.73;7.47;;;;;;;;;;5008324;28;20026;-42
2021/08/21 04:19:45;;;;;;;36.00;7.93;;;;;;;;;;5012879;28;20196;-44
2021/08/21 04:22:12;;;;;;;33.78;7.50;;;;;;;;;;5013500;28;20385;-45
2021/08/21 04:24:39;;;;;;;34.67;7.65;;;;;;;;;;5012445;28;20428;-44
2021/08/21 04:27:06;;;;;;;27.38;7.18;;;;;;;;;;5008217;28;20850;-45
2021/08/21 04:29:33;;;;;;;40.70;8.38;;;;;;;;;;5012780;28;20021;-45
2021/08/21 04:32:01;;;;;;;35.80;7.05;;;;;;;;;;5012483;28;20025;-44
2021/08/21 04:34:28;;;;;;;24.98;6.85;;;;;;;;;;5012288;28;20053;-42
2021/08/21 04:36:56;;;;;;;36.90;8.43;;;;;;;;;;5009913;28;20574;-45
2021/08/21 04:39:23;;;;;;;37.45;7.53;;;;;;;;;;4998880;28;20037;-42
2021/08/21 04:41:50;;;;;;;31.50;7.95;;;;;;;;;;4988081;28;20029;-46
2021/08/21 04:44:17;;;;;;;26.45;6.63;;;;;;;;;;4986123;28;20025;-45
2021/08/21 04:46:44;;;;;;;27.40;7.32;;;;;;;;;;5010201;28;20490;-44
2021/08/21 04:49:11;;;;;;;29.55;7.35;;;;;;;;;;5022499;28;20049;-46
2021/08/21 04:51:38;;;;;;;27.20;7.18;;;;;;;;;;5012541;28;20053;-46
2021/08/21 04:54:05;;;;;;;30.95;6.63;;;;;;;;;;5012075;28;20014;-42
2021/08/21 04:56:32;;;;;;;25.33;6.88;;;;;;;;;;5012071;28;20027;-44
2021/08/21 04:59:00;;;;;;;29.98;7.10;;;;;;;;;;5007214;28;20100;-44
2021/08/21 05:01:27;;;;;;;32.13;7.18;;;;;;;;;;5011124;28;20370;-44
2021/08/21 05:03:54;;;;;;;31.10;8.18;;;;;;;;;;5012217;28;20018;-42
2021/08/21 05:06:21;;;;;;;33.58;7.95;;;;;;;;;;5011939;28;20072;-47
2021/08/21 05:08:48;;;;;;;32.08;6.60;;;;;;;;;;5007685;28;20428;-42
2021/08/21 05:11:15;;;;;;;28.45;7.07;;;;;;;;;;5005985;28;20136;-43
2021/08/21 05:13:42;;;;;;;22.45;6.43;;;;;;;;;;5007491;28;20021;-42
2021/08/21 05:16:09;;;;;;;28.88;7.25;;;;;;;;;;5002888;28;20109;-42
2021/08/21 05:18:42;;;;;;;31.88;6.93;;;;;;;;;;5005851;28;20034;-45
2021/08/21 05:21:12;;;;;;;;;;;;;;;;;;5012169;28;20018;-45
2021/08/21 05:23:40;;;;;;;30.38;6.50;;;;;;;;;;5007131;28;19906;-43
2021/08/21 05:26:07;;;;;;;36.03;6.45;;;;;;;;;;5011715;28;20500;-43
2021/08/21 05:28:36;;;;;;;24.52;6.80;;;;;;;;;;5007177;28;20018;-43
2021/08/21 05:31:03;;;;;;;26.45;8.02;;;;;;;;;;5011276;28;20014;-44
2021/08/21 05:33:30;;;;;;;28.33;6.32;;;;;;;;;;5010267;28;20030;-43
2021/08/21 05:35:57;;;;;;;24.05;6.50;;;;;;;;;;5010048;28;20064;-45
2021/08/21 05:38:24;;;;;;;29.67;7.10;;;;;;;;;;5008355;28;20450;-46
2021/08/21 05:40:51;;;;;;;27.33;5.78;;;;;;;;;;5009697;28;20525;-44
2021/08/21 05:43:18;;;;;;;24.17;6.57;;;;;;;;;;5011774;28;20080;-45
2021/08/21 05:45:45;;;;;;;29.40;6.97;;;;;;;;;;5011400;28;20021;-45
2021/08/21 05:48:12;;;;;;;25.08;7.00;;;;;;;;;;5011656;28;20033;-43
2021/08/21 05:50:39;;;;;;;26.15;6.25;;;;;;;;;;5006648;28;20056;-44
2021/08/21 05:53:06;;;;;;;20.75;5.75;;;;;;;;;;5011730;28;20071;-44
2021/08/21 05:55:33;;;;;;;28.90;6.15;;;;;;;;;;5011271;28;20021;-44
2021/08/21 05:58:00;;;;;;;23.23;6.43;;;;;;;;;;5011011;28;20503;-41
2021/08/21 06:00:27;;;;;;;24.65;5.78;;;;;;;;;;5005427;28;20125;-44
2021/08/21 06:02:55;;;;;;;20.40;5.72;;;;;;;;;;5010751;28;20049;-52
2021/08/21 06:05:22;;;;;;;25.05;5.57;;;;;;;;;;5011374;28;20033;-42
2021/08/21 06:07:49;;;;;;;21.95;5.93;;;;;;;;;;5011223;28;20657;-42
2021/08/21 06:10:16;;;;;;;26.38;5.88;;;;;;;;;;5007113;28;20029;-45
2021/08/21 06:12:43;;;;;;;23.33;5.60;;;;;;;;;;5011154;28;20030;-45
2021/08/21 06:15:10;;;;;;;24.25;5.45;;;;;;;;;;5011410;28;20496;-45
2021/08/21 06:17:37;;;;;;;23.67;5.70;;;;;;;;;;5011057;28;20477;-42
2021/08/21 06:20:04;;;;;;;24.67;6.10;;;;;;;;;;5006193;28;20022;-41
2021/08/21 06:22:32;;;;;;;27.02;6.22;;;;;;;;;;5011362;28;20022;-45
2021/08/21 06:24:59;;;;;;;23.50;5.65;;;;;;;;;;5010983;28;20107;-46
2021/08/21 06:27:26;;;;;;;26.42;6.13;;;;;;;;;;5011095;28;20022;-42
2021/08/21 06:29:53;;;;;;;23.73;5.80;;;;;;;;;;5004960;28;20038;-43
2021/08/21 06:32:20;;;;;;;22.00;5.82;;;;;;;;;;5011046;28;20025;-43
2021/08/21 06:34:47;;;;;;;24.15;5.28;;;;;;;;;;5010713;28;20046;-44
2021/08/21 06:37:14;;;;;;;18.98;5.43;;;;;;;;;;5010928;28;20440;-42
2021/08/21 06:39:41;;;;;;;18.77;4.70;;;;;;;;;;5009269;28;20038;-43
2021/08/21 06:42:08;;;;;;;19.15;5.15;;;;;;;;;;5008149;28;20493;-43
2021/08/21 06:44:35;;;;;;;24.42;5.40;;;;;;;;;;5011014;28;20156;-43
2021/08/21 06:47:02;;;;;;;16.42;5.25;;;;;;;;;;5009816;28;20025;-42
2021/08/21 06:49:29;;;;;;;16.00;5.47;;;;;;;;;;5009397;28;20520;-47
2021/08/21 06:51:56;;;;;;;15.73;4.38;;;;;;;;;;5006756;28;20109;-47
2021/08/21 06:54:23;;;;;;;17.55;4.55;;;;;;;;;;5010638;28;20022;-42
2021/08/21 06:56:50;;;;;;;18.65;5.30;;;;;;;;;;5010841;28;20073;-45
2021/08/21 06:59:17;;;;;;;17.98;4.63;;;;;;;;;;5009232;28;20049;-44
2021/08/21 07:01:44;;;;;;;15.73;4.30;;;;;;;;;;5006730;28;20018;-43
2021/08/21 07:04:12;;;;;;;17.67;5.03;;;;;;;;;;5010308;28;20420;-45
2021/08/21 07:06:38;;;;;;;12.70;4.07;;;;;;;;;;5011079;28;20022;-42
2021/08/21 07:09:05;;;;;;;16.02;4.43;;;;;;;;;;5010832;28;20033;-44
2021/08/21 07:11:32;;;;;;;15.70;4.28;;;;;;;;;;5005838;28;20022;-45
2021/08/21 07:14:00;;;;;;;16.88;4.20;;;;;;;;;;5012445;28;20524;-42
2021/08/21 07:16:27;;;;;;;12.40;3.85;;;;;;;;;;5014117;28;20022;-42
2021/08/21 07:18:54;;;;;;;12.10;4.32;;;;;;;;;;5013883;28;20036;-45
2021/08/21 07:21:22;;;;;;;19.52;4.95;;;;;;;;;;5008089;28;20100;-42
2021/08/21 07:23:49;;;;;;;13.05;4.32;;;;;;;;;;5013864;28;20033;-44
2021/08/21 07:26:17;;;;;;;13.52;4.13;;;;;;;;;;5014577;28;20018;-44
2021/08/21 07:28:44;;;;;;;14.35;3.45;;;;;;;;;;5000419;28;20124;-42
2021/08/21 07:31:11;;;;;;;20.05;3.72;;;;;;;;;;5010241;28;20113;-44
2021/08/21 07:33:38;;;;;;;13.43;4.13;;;;;;;;;;5012982;28;20500;-45
2021/08/21 07:36:05;;;;;;;14.80;4.55;;;;;;;;;;5012761;28;20097;-46
2021/08/21 07:38:32;;;;;;;15.20;3.28;;;;;;;;;;5012075;28;20072;-46
2021/08/21 07:41:00;;;;;;;17.27;3.33;;;;;;;;;;5009315;28;20053;-42
2021/08/21 07:43:28;;;;;;;12.90;3.33;;;;;;;;;;5010100;28;20022;-43
2021/08/21 07:45:55;;;;;;;10.05;3.10;;;;;;;;;;5012820;28;20018;-44
2021/08/21 07:48:22;;;;;;;13.15;3.58;;;;;;;;;;5009997;28;20140;-43
2021/08/21 07:50:49;;;;;;;10.45;3.33;;;;;;;;;;5013321;28;20022;-45
2021/08/21 07:53:17;;;;;;;9.13;3.40;;;;;;;;;;5009042;28;20034;-45
2021/08/21 07:55:44;;;;;;;12.77;3.70;;;;;;;;;;5013574;28;20192;-49
2021/08/21 07:58:11;;;;;;;13.00;3.20;;;;;;;;;;5013365;28;20026;-49
2021/08/21 08:00:41;;;;;;;11.07;3.40;;;;;;;;;;5012495;28;20038;-45
2021/08/21 08:03:12;;;;;;;10.68;3.25;;;;;;;;;;5009379;28;20426;-45
2021/08/21 08:05:39;;;;;;;10.93;2.97;;;;;;;;;;5013710;28;20033;-44
2021/08/21 08:08:06;;;;;;;9.30;3.08;;;;;;;;;;5012241;28;20029;-47
2021/08/21 08:10:33;;;;;;;8.65;3.28;;;;;;;;;;5012289;28;20420;-42
2021/08/21 08:13:00;;;;;;;11.70;3.45;;;;;;;;;;5009018;28;20026;-44
2021/08/21 08:15:27;;;;;;;11.82;3.40;;;;;;;;;;5013112;28;20496;-45
2021/08/21 08:17:54;;;;;;;7.55;2.95;;;;;;;;;;5013341;28;20034;-43
2021/08/21 08:20:21;;;;;;;10.55;2.60;;;;;;;;;;5013213;28;20034;-45
2021/08/21 08:22:48;;;;;;;11.48;3.00;;;;;;;;;;5008633;28;20033;-45
2021/08/21 08:25:15;;;;;;;10.32;3.00;;;;;;;;;;5012911;28;20499;-45
2021/08/21 08:27:45;;;;;;;7.43;2.40;;;;;;;;;;5013218;28;20030;-44
2021/08/21 08:30:12;;;;;;;9.23;2.60;;;;;;;;;;5012836;28;20030;-45
2021/08/21 08:32:39;;;;;;;7.68;2.70;;;;;;;;;;5009728;28;20034;-42
2021/08/21 08:35:06;;;;;;;8.68;2.67;;;;;;;;;;5011594;28;20509;-46
2021/08/21 08:37:33;;;;;;;12.48;2.35;;;;;;;;;;5012670;28;20045;-44
2021/08/21 08:40:00;;;;;;;9.45;2.38;;;;;;;;;;5012834;28;20030;-43
2021/08/21 08:42:28;;;;;;;6.07;2.13;;;;;;;;;;5012783;28;20026;-44
2021/08/21 08:44:55;;;;;;;5.97;2.50;;;;;;;;;;5008752;28;20029;-47
2021/08/21 08:47:22;;;;;;;5.40;2.03;;;;;;;;;;5011030;28;20018;-45
2021/08/21 08:49:50;;;;;;;8.18;2.42;;;;;;;;;;5013318;28;20412;-43
2021/08/21 08:52:18;;;;;;;6.60;2.08;;;;;;;;;;5012633;28;20033;-45
2021/08/21 08:54:46;;;;;;;12.35;2.42;;;;;;;;;;5008365;28;20096;-45
2021/08/21 08:57:33;;;;;;;6.35;1.90;;;;;;;;;;5012774;28;20473;-44
2021/08/21 09:00:00;;;;;;;7.20;2.10;;;;;;;;;;5013000;28;20473;-46
2021/08/21 09:02:34;;;;;;;8.60;2.08;;;;;;;;;;5012120;28;20072;-42
2021/08/21 09:05:03;;;;;;;6.20;2.22;;;;;;;;;;5007939;28;20029;-44
2021/08/21 09:07:42;;;;;;;7.75;2.20;;;;;;;;;;5012203;28;20105;-43
2021/08/21 09:10:16;;;;;;;5.45;1.70;;;;;;;;;;5011234;28;20025;-44
2021/08/21 09:12:44;;;;;;;10.18;1.70;;;;;;;;;;5012537;28;20022;-43
2021/08/21 09:15:28;;;;;;;5.90;1.77;;;;;;;;;;5007705;28;20555;-46
2021/08/21 09:17:58;;;;;;;6.35;1.60;;;;;;;;;;5011985;28;20034;-44
2021/08/21 09:20:25;;;;;;;6.88;2.05;;;;;;;;;;5012146;28;20076;-44
2021/08/21 09:22:52;;;;;;;6.57;2.10;;;;;;;;;;5012152;28;20076;-45
2021/08/21 09:25:32;;;;;;;6.93;1.80;;;;;;;;;;5007919;28;20040;-43
2021/08/21 09:28:14;;;;;;;6.57;2.00;;;;;;;;;;5011916;28;20018;-47
2021/08/21 09:30:41;;;;;;;6.30;1.70;;;;;;;;;;5010766;28;20022;-44
2021/08/21 09:33:08;;;;;;;5.82;1.73;;;;;;;;;;5010605;28;20044;-43
2021/08/21 09:35:35;;;;;;;6.00;1.80;;;;;;;;;;5007030;28;20453;-43
2021/08/21 09:38:02;;;;;;;3.92;1.67;;;;;;;;;;5011383;28;20111;-43
2021/08/21 09:40:31;;;;;;;3.70;1.30;;;;;;;;;;5010638;28;20026;-43
2021/08/21 09:42:58;;;;;;;8.80;1.63;;;;;;;;;;5004688;28;20018;-43
2021/08/21 09:45:25;;;;;;;3.17;1.13;;;;;;;;;;5007218;28;20073;-44
2021/08/21 09:48:03;;;;;;;6.90;1.30;;;;;;;;;;5011941;28;20370;-43
2021/08/21 09:50:48;;;;;;;5.55;1.48;;;;;;;;;;5011419;28;20482;-43
2021/08/21 09:53:15;;;;;;;4.15;1.40;;;;;;;;;;5011734;28;20076;-44
2021/08/21 09:55:42;;;;;;;5.35;1.20;;;;;;;;;;5007194;28;20092;-44
2021/08/21 09:58:17;;;;;;;5.30;1.25;;;;;;;;;;5011896;28;20038;-44
2021/08/21 10:00:44;;;;;;;6.75;1.50;;;;;;;;;;5011283;28;20030;-45
2021/08/21 10:03:11;;;;;;;5.30;1.48;;;;;;;;;;5010377;28;20372;-43
2021/08/21 10:05:40;;;;;;;3.95;1.17;;;;;;;;;;5005712;28;20080;-45
2021/08/21 10:08:09;;;;;;;2.55;1.10;;;;;;;;;;5011559;28;20029;-46
2021/08/21 10:10:39;;;;;;;5.30;1.40;;;;;;;;;;5011348;28;20038;-45
2021/08/21 10:13:10;;;;;;;3.15;1.23;;;;;;;;;;5011114;28;20037;-43
2021/08/21 10:15:39;;;;;;;5.63;1.30;;;;;;;;;;5007038;28;20061;-44
2021/08/21 10:18:06;;;;;;;4.13;1.38;;;;;;;;;;5011471;28;20022;-43
2021/08/21 10:20:34;;;;;;;7.00;1.50;;;;;;;;;;5010095;28;20405;-45
2021/08/21 10:23:08;;;;;;;2.80;0.98;;;;;;;;;;5011193;28;20030;-43
2021/08/21 10:25:36;;;;;;;3.50;1.52;;;;;;;;;;5006674;28;20532;-43
2021/08/21 10:28:05;;;;;;;3.83;1.40;;;;;;;;;;5011521;28;20029;-43
2021/08/21 10:30:47;;;;;;;4.57;1.33;;;;;;;;;;5011478;28;20033;-43
2021/08/21 10:33:15;;;;;;;4.50;1.10;;;;;;;;;;5011253;28;20058;-43
2021/08/21 10:35:55;;;;;;;3.03;1.05;;;;;;;;;;5006907;28;20052;-43
2021/08/21 10:38:28;;;;;;;6.80;1.58;;;;;;;;;;5008315;28;20054;-44
2021/08/21 10:40:55;;;;;;;3.90;1.33;;;;;;;;;;5009817;28;20536;-45
2021/08/21 10:43:40;;;;;;;3.83;0.95;;;;;;;;;;5010829;28;20036;-44
2021/08/21 10:46:07;;;;;;;5.65;1.10;;;;;;;;;;5006725;28;20033;-44
2021/08/21 10:48:37;;;;;;;2.67;1.10;;;;;;;;;;5014235;28;20045;-43
2021/08/21 10:51:24;;;;;;;6.00;1.05;;;;;;;;;;5014573;28;20030;-43
2021/08/21 10:53:51;;;;;;;2.72;1.00;;;;;;;;;;5014297;28;20408;-43
2021/08/21 10:56:33;;;;;;;3.33;1.08;;;;;;;;;;5010502;28;20037;-43
2021/08/21 10:59:00;;;;;;;;;;;;;;;;;;5015406;28;20128;-44
2021/08/21 11:01:27;;;;;;;2.78;0.70;;;;;;;;;;5014736;28;20282;-42
2021/08/21 11:03:54;;;;;;;2.05;0.70;;;;;;;;;;5014594;28;20029;-45
2021/08/21 11:06:32;;;;;;;3.88;0.85;;;;;;;;;;5011743;28;20072;-44
2021/08/21 11:09:00;;;;;;;5.60;0.98;;;;;;;;;;5015037;28;20022;-48
2021/08/21 11:11:32;;;;;;;6.80;1.23;;;;;;;;;;5014465;28;20394;-46
2021/08/21 11:14:02;;;;;;;;;;;;;;;;;;5014663;28;20022;-44
2021/08/21 11:16:50;;;;;;;4.10;0.70;;;;;;;;;;5011712;28;19919;-45
2021/08/21 11:19:29;;;;;;;5.30;1.00;;;;;;;;;;5014755;28;20441;-45
2021/08/21 11:22:11;;;;;;;2.80;1.10;;;;;;;;;;5014356;28;20026;-44
2021/08/21 11:24:39;;;;;;;4.40;0.93;;;;;;;;;;5014276;28;20018;-43
2021/08/21 11:27:24;;;;;;;4.63;0.80;;;;;;;;;;5009505;28;20103;-46
2021/08/21 11:30:21;;;;;;;3.95;1.00;;;;;;;;;;5014514;28;20633;-44
2021/08/21 11:32:57;;;;;;;3.30;1.38;;;;;;;;;;5013219;28;20018;-45
2021/08/21 11:35:24;;;;;;;3.40;1.05;;;;;;;;;;5013847;28;20409;-45
2021/08/21 11:38:11;;;;;;;4.57;1.10;;;;;;;;;;5009158;28;20576;-45
2021/08/21 11:40:45;;;;;;;3.63;0.80;;;;;;;;;;5014043;28;20026;-46
2021/08/21 11:43:14;;;;;;;2.60;0.93;;;;;;;;;;5003375;28;20025;-47
2021/08/21 11:45:41;;;;;;;5.90;0.80;;;;;;;;;;4987538;28;20648;-47
2021/08/21 11:48:09;;;;;;;11.43;1.38;;;;;;;;;;4988188;28;20026;-48
2021/08/21 11:50:43;;;;;;;4.70;1.20;;;;;;;;;;5005664;28;20038;-43
2021/08/21 11:53:16;;;;;;;8.63;0.85;;;;;;;;;;5004901;28;20639;-50
2021/08/21 11:55:44;;;;;;;9.15;1.55;;;;;;;;;;5005419;28;20030;-50
2021/08/21 11:58:12;;;;;;;10.23;0.93;;;;;;;;;;4997681;28;20125;-43
2021/08/21 12:00:44;;;;;;;13.88;0.93;;;;;;;;;;5004373;28;20034;-46
2021/08/21 12:03:15;;;;;;;8.40;1.00;;;;;;;;;;5011056;28;20017;-42
2021/08/21 12:05:43;;;;;;;6.60;1.17;;;;;;;;;;5010567;28;20477;-39
2021/08/21 12:08:24;;;;;;;6.30;1.02;;;;;;;;;;5004099;28;20145;-43
2021/08/21 12:10:55;;;;;;;7.50;1.15;;;;;;;;;;5003839;28;20485;-43
2021/08/21 12:13:27;;;;;;;9.07;0.90;;;;;;;;;;5007269;28;20374;-41
2021/08/21 12:15:56;;;;;;;13.88;1.40;;;;;;;;;;5010742;28;20053;-34
2021/08/21 12:18:25;;;;;;;5.25;1.00;;;;;;;;;;4996831;28;20397;-37
2021/08/21 12:20:52;;;;;;;10.13;1.55;;;;;;;;;;5005859;28;20088;-35
2021/08/21 12:23:21;;;;;;;7.30;1.85;;;;;;;;;;5012083;28;20474;-34
2021/08/21 12:25:53;;;;;;;8.95;0.88;;;;;;;;;;5011392;28;20025;-37
2021/08/21 12:28:21;;;;;;;8.95;2.03;;;;;;;;;;5008609;28;20046;-41
2021/08/21 12:31:01;;;;;;;11.32;1.10;;;;;;;;;;5001609;28;20033;-47
2021/08/21 12:33:29;;;;;;;5.38;0.80;;;;;;;;;;5011328;28;20037;-48
2021/08/21 12:35:57;;;;;;;5.65;0.77;;;;;;;;;;5012349;28;20022;-36
2021/08/21 12:38:24;;;;;;;8.32;0.68;;;;;;;;;;5010632;28;20045;-42
2021/08/21 12:41:10;;;;;;;6.18;0.98;;;;;;;;;;5008980;28;20030;-37
2021/08/21 12:43:40;;;;;;;9.88;1.00;;;;;;;;;;5008039;28;20029;-34
2021/08/21 12:46:17;;;;;;;12.50;1.42;;;;;;;;;;5010827;28;20030;-33
2021/08/21 12:48:45;;;;;;;16.08;1.30;;;;;;;;;;5003149;28;20038;-39
2021/08/21 12:51:12;;;;;;;17.42;1.13;;;;;;;;;;5007902;28;20028;-37
2021/08/21 12:53:39;;;;;;;8.93;1.60;;;;;;;;;;5010773;28;20026;-43
2021/08/21 12:56:10;;;;;;;9.15;1.20;;;;;;;;;;5009734;28;20025;-43
2021/08/21 12:58:38;;;;;;;11.23;1.10;;;;;;;;;;5011867;28;20072;-42
2021/08/21 13:01:09;;;;;;;13.80;1.00;;;;;;;;;;5004433;28;20026;-43
2021/08/21 13:03:36;;;;;;;12.00;1.38;;;;;;;;;;5002822;28;20030;-37
2021/08/21 13:06:04;;;;;;;12.40;1.17;;;;;;;;;;5008398;28;20097;-39
2021/08/21 13:08:40;;;;;;;11.50;1.40;;;;;;;;;;5010424;28;20076;-38
2021/08/21 13:11:09;;;;;;;9.57;1.35;;;;;;;;;;5007216;28;20025;-39
2021/08/21 13:13:36;;;;;;;12.55;1.30;;;;;;;;;;5011575;28;20028;-35
2021/08/21 13:16:04;;;;;;;6.95;1.20;;;;;;;;;;5009570;28;20034;-36
2021/08/21 13:18:31;;;;;;;11.50;1.10;;;;;;;;;;5002532;28;20129;-39
2021/08/21 13:20:58;;;;;;;14.18;1.48;;;;;;;;;;5001287;28;20449;-52
2021/08/21 13:23:25;;;;;;;7.03;1.10;;;;;;;;;;5011845;28;20022;-41
2021/08/21 13:25:52;;;;;;;13.10;1.40;;;;;;;;;;5011112;28;20033;-48
2021/08/21 13:28:20;;;;;;;8.75;1.25;;;;;;;;;;5010988;28;20018;-40
2021/08/21 13:30:50;;;;;;;7.72;1.20;;;;;;;;;;5004812;28;20022;-35
2021/08/21 13:33:17;;;;;;;10.63;1.85;;;;;;;;;;5010118;28;20072;-39
2021/08/21 13:35:44;;;;;;;9.25;1.77;;;;;;;;;;5010510;28;20073;-35
2021/08/21 13:38:14;;;;;;;9.98;1.42;;;;;;;;;;5011065;28;20045;-39
2021/08/21 13:40:41;;;;;;;11.52;1.35;;;;;;;;;;5006211;28;20060;-47
2021/08/21 13:43:11;;;;;;;12.07;1.73;;;;;;;;;;4995823;28;20053;-38
2021/08/21 13:45:38;;;;;;;15.38;1.52;;;;;;;;;;4999954;28;20048;-35
2021/08/21 13:48:05;;;;;;;15.57;2.85;;;;;;;;;;5010705;28;20018;-36
2021/08/21 13:50:32;;;;;;;11.15;1.20;;;;;;;;;;5007380;28;21169;-40
2021/08/21 13:53:00;;;;;;;9.30;1.13;;;;;;;;;;5010479;28;20101;-36
2021/08/21 13:55:27;;;;;;;11.90;1.20;;;;;;;;;;5009213;28;20018;-38
2021/08/21 13:57:54;;;;;;;10.52;1.40;;;;;;;;;;5010354;28;20425;-42
2021/08/21 14:00:21;;;;;;;10.32;1.80;;;;;;;;;;5002755;28;20384;-35
2021/08/21 14:02:48;;;;;;;13.48;1.30;;;;;;;;;;5007958;28;20064;-41
2021/08/21 14:05:15;;;;;;;13.40;1.67;;;;;;;;;;5009040;28;20492;-42
2021/08/21 14:07:43;;;;;;;12.93;1.65;;;;;;;;;;5007991;28;20440;-32
2021/08/21 14:10:11;;;;;;;14.50;1.90;;;;;;;;;;5011246;28;20018;-45
2021/08/21 14:12:38;;;;;;;11.07;1.15;;;;;;;;;;5006864;28;20018;-38
2021/08/21 14:15:06;;;;;;;12.18;1.20;;;;;;;;;;5010947;28;20104;-37
2021/08/21 14:17:33;;;;;;;14.23;1.40;;;;;;;;;;5007665;28;20456;-33
2021/08/21 14:20:01;;;;;;;15.63;1.60;;;;;;;;;;5010240;28;20038;-33
2021/08/21 14:22:31;;;;;;;15.45;2.03;;;;;;;;;;5006088;28;20028;-41
2021/08/21 14:24:58;;;;;;;15.57;1.40;;;;;;;;;;5014547;28;20425;-35
2021/08/21 14:27:26;;;;;;;17.92;1.65;;;;;;;;;;5008431;28;20026;-40
2021/08/21 14:29:53;;;;;;;13.50;1.65;;;;;;;;;;5012634;28;20022;-39
2021/08/21 14:32:20;;;;;;;13.20;1.63;;;;;;;;;;5009205;28;20029;-42
2021/08/21 14:34:48;;;;;;;14.55;1.80;;;;;;;;;;5010954;28;20441;-42
2021/08/21 14:37:15;;;;;;;17.23;2.15;;;;;;;;;;5010757;28;20038;-35
2021/08/21 14:39:42;;;;;;;13.35;1.65;;;;;;;;;;5004571;28;20064;-35
2021/08/21 14:42:10;;;;;;;15.95;1.60;;;;;;;;;;4997963;28;20037;-34